sensor_id;sensor_type;location;lat;lon;timestamp;temperature;humidity
66582;SHT31;53438;48.898;2.308;2023-06-14T03:01:06;22.18;50.21
66582;SHT31;53438;48.898;2.308;2023-06-14T03:03:33;22.18;50.20
66582;SHT31;53438;48.898;2.308;2023-06-14T03:05:58;22.04;50.56
66582;SHT31;53438;48.898;2.308;2023-06-14T03:08:30;22.02;50.72
66582;SHT31;53438;48.898;2.308;2023-06-14T03:10:56;22.04;50.49
66582;SHT31;53438;48.898;2.308;2023-06-14T03:13:22;21.97;50.61
66582;SHT31;53438;48.898;2.308;2023-06-14T03:15:49;21.97;50.65
66582;SHT31;53438;48.898;2.308;2023-06-14T03:18:17;21.86;51.11
66582;SHT31;53438;48.898;2.308;2023-06-14T03:20:42;21.76;50.93
66582;SHT31;53438;48.898;2.308;2023-06-14T03:23:10;21.82;50.95
66582;SHT31;53438;48.898;2.308;2023-06-14T03:25:37;21.65;51.30
66582;SHT31;53438;48.898;2.308;2023-06-14T03:28:06;21.62;51.39
66582;SHT31;53438;48.898;2.308;2023-06-14T03:30:31;21.61;51.52
66582;SHT31;53438;48.898;2.308;2023-06-14T03:32:57;21.55;51.52
66582;SHT31;53438;48.898;2.308;2023-06-14T03:35:23;21.55;51.62
66582;SHT31;53438;48.898;2.308;2023-06-14T03:37:49;21.65;51.44
66582;SHT31;53438;48.898;2.308;2023-06-14T03:40:16;21.59;51.66
66582;SHT31;53438;48.898;2.308;2023-06-14T03:42:41;21.51;51.59
66582;SHT31;53438;48.898;2.308;2023-06-14T03:45:07;21.56;51.44
66582;SHT31;53438;48.898;2.308;2023-06-14T03:47:34;21.66;51.31
66582;SHT31;53438;48.898;2.308;2023-06-14T03:50:01;21.42;52.06
66582;SHT31;53438;48.898;2.308;2023-06-14T03:52:27;21.51;51.81
66582;SHT31;53438;48.898;2.308;2023-06-14T03:54:54;21.54;51.87
66582;SHT31;53438;48.898;2.308;2023-06-14T03:57:19;21.45;51.80
66582;SHT31;53438;48.898;2.308;2023-06-14T03:59:45;21.52;51.70
66582;SHT31;53438;48.898;2.308;2023-06-14T04:02:10;21.52;51.79
66582;SHT31;53438;48.898;2.308;2023-06-14T04:04:37;21.55;51.93
66582;SHT31;53438;48.898;2.308;2023-06-14T04:07:02;21.58;51.89
66582;SHT31;53438;48.898;2.308;2023-06-14T04:09:31;21.58;52.00
66582;SHT31;53438;48.898;2.308;2023-06-14T04:11:57;21.51;52.23
66582;SHT31;53438;48.898;2.308;2023-06-14T04:14:22;21.32;52.78
66582;SHT31;53438;48.898;2.308;2023-06-14T04:16:48;21.42;52.69
66582;SHT31;53438;48.898;2.308;2023-06-14T04:19:14;21.61;52.38
66582;SHT31;53438;48.898;2.308;2023-06-14T04:21:40;21.39;52.64
66582;SHT31;53438;48.898;2.308;2023-06-14T04:24:06;21.34;52.88
66582;SHT31;53438;48.898;2.308;2023-06-14T04:26:32;21.32;52.99
66582;SHT31;53438;48.898;2.308;2023-06-14T04:28:59;21.12;53.41
66582;SHT31;53438;48.898;2.308;2023-06-14T04:31:30;21.07;53.63
66582;SHT31;53438;48.898;2.308;2023-06-14T04:33:59;21.21;53.51
66582;SHT31;53438;48.898;2.308;2023-06-14T04:36:24;21.18;53.46
66582;SHT31;53438;48.898;2.308;2023-06-14T04:38:51;20.91;54.09
66582;SHT31;53438;48.898;2.308;2023-06-14T04:41:20;20.84;54.37
66582;SHT31;53438;48.898;2.308;2023-06-14T04:43:46;20.88;54.07
66582;SHT31;53438;48.898;2.308;2023-06-14T04:46:13;21.08;53.72
66582;SHT31;53438;48.898;2.308;2023-06-14T04:48:40;21.20;53.20
66582;SHT31;53438;48.898;2.308;2023-06-14T04:51:08;21.07;53.61
66582;SHT31;53438;48.898;2.308;2023-06-14T04:53:34;20.57;54.77
66582;SHT31;53438;48.898;2.308;2023-06-14T04:55:59;21.10;53.63
66582;SHT31;53438;48.898;2.308;2023-06-14T04:58:26;21.24;53.15
66582;SHT31;53438;48.898;2.308;2023-06-14T05:00:52;21.24;53.19
66582;SHT31;53438;48.898;2.308;2023-06-14T05:03:18;21.30;53.40
66582;SHT31;53438;48.898;2.308;2023-06-14T05:05:46;21.38;52.88
66582;SHT31;53438;48.898;2.308;2023-06-14T05:08:11;21.20;53.45
66582;SHT31;53438;48.898;2.308;2023-06-14T05:10:36;21.21;53.70
66582;SHT31;53438;48.898;2.308;2023-06-14T05:13:02;21.24;53.69
66582;SHT31;53438;48.898;2.308;2023-06-14T05:15:27;21.39;53.51
66582;SHT31;53438;48.898;2.308;2023-06-14T05:17:54;21.45;53.16
66582;SHT31;53438;48.898;2.308;2023-06-14T05:20:24;21.45;52.97
66582;SHT31;53438;48.898;2.308;2023-06-14T05:22:53;21.32;53.44
66582;SHT31;53438;48.898;2.308;2023-06-14T05:25:20;21.55;52.88
66582;SHT31;53438;48.898;2.308;2023-06-14T05:27:46;21.62;52.44
66582;SHT31;53438;48.898;2.308;2023-06-14T05:30:12;21.81;52.08
66582;SHT31;53438;48.898;2.308;2023-06-14T05:32:37;21.72;52.23
66582;SHT31;53438;48.898;2.308;2023-06-14T05:35:03;21.63;52.39
66582;SHT31;53438;48.898;2.308;2023-06-14T05:37:29;21.66;52.36
66582;SHT31;53438;48.898;2.308;2023-06-14T05:39:54;21.79;51.83
66582;SHT31;53438;48.898;2.308;2023-06-14T05:42:20;21.86;51.72
66582;SHT31;53438;48.898;2.308;2023-06-14T05:44:45;21.88;51.63
66582;SHT31;53438;48.898;2.308;2023-06-14T05:47:10;21.71;52.23
66582;SHT31;53438;48.898;2.308;2023-06-14T05:49:36;21.72;52.19
66582;SHT31;53438;48.898;2.308;2023-06-14T05:52:01;21.93;51.73
66582;SHT31;53438;48.898;2.308;2023-06-14T05:54:27;21.95;51.66
66582;SHT31;53438;48.898;2.308;2023-06-14T05:56:52;22.12;51.32
66582;SHT31;53438;48.898;2.308;2023-06-14T05:59:17;22.24;50.76
66582;SHT31;53438;48.898;2.308;2023-06-14T06:01:43;22.32;49.51
66582;SHT31;53438;48.898;2.308;2023-06-14T06:04:08;22.43;49.65
66582;SHT31;53438;48.898;2.308;2023-06-14T06:06:34;22.26;48.27
66582;SHT31;53438;48.898;2.308;2023-06-14T06:09:00;22.33;47.86
66582;SHT31;53438;48.898;2.308;2023-06-14T06:11:26;22.41;47.47
66582;SHT31;53438;48.898;2.308;2023-06-14T06:13:51;22.43;47.28
66582;SHT31;53438;48.898;2.308;2023-06-14T06:16:17;22.54;47.23
66582;SHT31;53438;48.898;2.308;2023-06-14T06:18:42;22.44;47.62
66582;SHT31;53438;48.898;2.308;2023-06-14T06:21:07;22.69;46.13
66582;SHT31;53438;48.898;2.308;2023-06-14T06:23:33;22.87;45.70
66582;SHT31;53438;48.898;2.308;2023-06-14T06:25:58;22.91;46.51
66582;SHT31;53438;48.898;2.308;2023-06-14T06:28:24;22.91;45.88
66582;SHT31;53438;48.898;2.308;2023-06-14T06:30:49;22.98;45.59
66582;SHT31;53438;48.898;2.308;2023-06-14T06:33:16;23.03;45.30
66582;SHT31;53438;48.898;2.308;2023-06-14T06:35:42;23.24;45.71
66582;SHT31;53438;48.898;2.308;2023-06-14T06:38:08;23.36;44.90
66582;SHT31;53438;48.898;2.308;2023-06-14T06:40:35;23.45;44.25
66582;SHT31;53438;48.898;2.308;2023-06-14T06:43:02;23.20;44.67
66582;SHT31;53438;48.898;2.308;2023-06-14T06:45:27;23.43;44.38
66582;SHT31;53438;48.898;2.308;2023-06-14T06:47:53;23.46;44.50
66582;SHT31;53438;48.898;2.308;2023-06-14T06:50:18;23.63;43.84
66582;SHT31;53438;48.898;2.308;2023-06-14T06:52:45;23.64;43.37
66582;SHT31;53438;48.898;2.308;2023-06-14T06:55:10;23.69;43.91
66582;SHT31;53438;48.898;2.308;2023-06-14T06:57:36;23.87;44.00
66582;SHT31;53438;48.898;2.308;2023-06-14T07:00:02;23.98;43.36
66582;SHT31;53438;48.898;2.308;2023-06-14T07:02:29;24.12;42.98
66582;SHT31;53438;48.898;2.308;2023-06-14T07:04:55;24.32;42.90
66582;SHT31;53438;48.898;2.308;2023-06-14T07:07:21;24.31;41.73
66582;SHT31;53438;48.898;2.308;2023-06-14T07:09:47;24.59;40.42
66582;SHT31;53438;48.898;2.308;2023-06-14T07:12:13;24.69;39.82
66582;SHT31;53438;48.898;2.308;2023-06-14T07:14:38;24.63;40.08
66582;SHT31;53438;48.898;2.308;2023-06-14T07:17:04;24.79;39.56
66582;SHT31;53438;48.898;2.308;2023-06-14T07:19:30;24.75;39.34
66582;SHT31;53438;48.898;2.308;2023-06-14T07:21:55;24.82;39.70
66582;SHT31;53438;48.898;2.308;2023-06-14T07:24:21;24.93;38.40
66582;SHT31;53438;48.898;2.308;2023-06-14T07:26:46;24.94;38.33
66582;SHT31;53438;48.898;2.308;2023-06-14T07:29:13;24.76;39.65
66582;SHT31;53438;48.898;2.308;2023-06-14T07:31:38;24.89;40.21
66582;SHT31;53438;48.898;2.308;2023-06-14T07:34:04;24.84;39.19
66582;SHT31;53438;48.898;2.308;2023-06-14T07:36:29;25.04;39.10
66582;SHT31;53438;48.898;2.308;2023-06-14T07:38:54;25.23;38.42
66582;SHT31;53438;48.898;2.308;2023-06-14T07:41:20;25.21;39.15
66582;SHT31;53438;48.898;2.308;2023-06-14T07:43:45;25.20;39.03
66582;SHT31;53438;48.898;2.308;2023-06-14T07:46:11;25.42;38.72
66582;SHT31;53438;48.898;2.308;2023-06-14T07:48:36;25.55;38.31
66582;SHT31;53438;48.898;2.308;2023-06-14T07:51:02;25.57;38.56
66582;SHT31;53438;48.898;2.308;2023-06-14T07:53:27;25.55;38.86
66582;SHT31;53438;48.898;2.308;2023-06-14T07:55:53;24.87;39.36
66582;SHT31;53438;48.898;2.308;2023-06-14T07:58:18;24.83;39.52
66582;SHT31;53438;48.898;2.308;2023-06-14T08:00:44;25.34;39.27
66582;SHT31;53438;48.898;2.308;2023-06-14T08:03:09;25.62;37.96
66582;SHT31;53438;48.898;2.308;2023-06-14T08:05:35;25.90;36.64
66582;SHT31;53438;48.898;2.308;2023-06-14T08:08:00;25.98;35.43
66582;SHT31;53438;48.898;2.308;2023-06-14T08:10:25;26.10;36.17
66582;SHT31;53438;48.898;2.308;2023-06-14T08:12:51;26.30;35.70
66582;SHT31;53438;48.898;2.308;2023-06-14T08:15:17;26.30;36.35
66582;SHT31;53438;48.898;2.308;2023-06-14T08:17:43;26.18;36.50
66582;SHT31;53438;48.898;2.308;2023-06-14T08:20:09;26.40;37.10
66582;SHT31;53438;48.898;2.308;2023-06-14T08:22:35;26.40;36.41
66582;SHT31;53438;48.898;2.308;2023-06-14T08:25:01;26.46;36.10
66582;SHT31;53438;48.898;2.308;2023-06-14T08:27:27;26.44;36.14
66582;SHT31;53438;48.898;2.308;2023-06-14T08:29:52;26.63;35.94
66582;SHT31;53438;48.898;2.308;2023-06-14T08:32:18;26.74;35.99
66582;SHT31;53438;48.898;2.308;2023-06-14T08:34:43;26.86;35.74
66582;SHT31;53438;48.898;2.308;2023-06-14T08:37:09;27.08;36.33
66582;SHT31;53438;48.898;2.308;2023-06-14T08:39:34;27.02;35.77
66582;SHT31;53438;48.898;2.308;2023-06-14T08:42:01;27.01;36.87
66582;SHT31;53438;48.898;2.308;2023-06-14T08:44:27;26.94;35.09
66582;SHT31;53438;48.898;2.308;2023-06-14T08:46:57;27.08;36.09
66582;SHT31;53438;48.898;2.308;2023-06-14T08:49:24;27.19;35.43
66582;SHT31;53438;48.898;2.308;2023-06-14T08:51:55;27.21;35.49
66582;SHT31;53438;48.898;2.308;2023-06-14T08:54:22;27.25;34.86
66582;SHT31;53438;48.898;2.308;2023-06-14T08:56:49;27.09;36.79
66582;SHT31;53438;48.898;2.308;2023-06-14T08:59:17;27.29;35.47
66582;SHT31;53438;48.898;2.308;2023-06-14T09:01:44;27.70;31.76
66582;SHT31;53438;48.898;2.308;2023-06-14T09:04:11;27.92;31.33
66582;SHT31;53438;48.898;2.308;2023-06-14T09:06:36;28.08;31.55
66582;SHT31;53438;48.898;2.308;2023-06-14T09:09:02;28.13;32.32
66582;SHT31;53438;48.898;2.308;2023-06-14T09:11:30;28.16;33.58
66582;SHT31;53438;48.898;2.308;2023-06-14T09:13:55;28.04;33.99
66582;SHT31;53438;48.898;2.308;2023-06-14T09:16:21;28.00;33.84
66582;SHT31;53438;48.898;2.308;2023-06-14T09:18:47;28.13;33.89
66582;SHT31;53438;48.898;2.308;2023-06-14T09:21:14;28.08;31.23
66582;SHT31;53438;48.898;2.308;2023-06-14T09:23:42;27.98;31.39
66582;SHT31;53438;48.898;2.308;2023-06-14T09:28:33;27.87;30.40
66582;SHT31;53438;48.898;2.308;2023-06-14T09:31:00;27.97;29.07
66582;SHT31;53438;48.898;2.308;2023-06-14T09:33:25;28.01;28.36
66582;SHT31;53438;48.898;2.308;2023-06-14T09:35:55;28.08;28.78
66582;SHT31;53438;48.898;2.308;2023-06-14T09:38:21;28.08;29.70
66582;SHT31;53438;48.898;2.308;2023-06-14T09:40:46;28.25;27.50
66582;SHT31;53438;48.898;2.308;2023-06-14T09:43:11;28.28;26.05
66582;SHT31;53438;48.898;2.308;2023-06-14T09:45:39;28.29;27.23
66582;SHT31;53438;48.898;2.308;2023-06-14T09:48:07;28.38;27.47
66582;SHT31;53438;48.898;2.308;2023-06-14T09:50:34;28.29;26.52
66582;SHT31;53438;48.898;2.308;2023-06-14T09:53:06;28.35;25.59
66582;SHT31;53438;48.898;2.308;2023-06-14T09:55:35;28.40;25.98
66582;SHT31;53438;48.898;2.308;2023-06-14T09:58:05;28.41;26.39
66582;SHT31;53438;48.898;2.308;2023-06-14T10:00:32;28.35;27.07
66582;SHT31;53438;48.898;2.308;2023-06-14T10:03:01;28.31;26.43
66582;SHT31;53438;48.898;2.308;2023-06-14T10:05:30;28.27;26.65
66582;SHT31;53438;48.898;2.308;2023-06-14T10:08:08;28.45;26.61
66582;SHT31;53438;48.898;2.308;2023-06-14T10:10:33;28.55;26.79
66582;SHT31;53438;48.898;2.308;2023-06-14T10:12:59;28.56;26.11
66582;SHT31;53438;48.898;2.308;2023-06-14T10:16:39;28.59;26.37
66582;SHT31;53438;48.898;2.308;2023-06-14T10:18:59;28.71;26.58
66582;SHT31;53438;48.898;2.308;2023-06-14T10:21:45;28.74;26.11
66582;SHT31;53438;48.898;2.308;2023-06-14T10:24:16;28.54;26.57
66582;SHT31;53438;48.898;2.308;2023-06-14T10:26:54;28.65;27.22
66582;SHT31;53438;48.898;2.308;2023-06-14T10:29:22;28.72;26.28
66582;SHT31;53438;48.898;2.308;2023-06-14T10:31:53;28.61;25.73
66582;SHT31;53438;48.898;2.308;2023-06-14T10:34:30;28.34;26.09
66582;SHT31;53438;48.898;2.308;2023-06-14T10:37:13;28.35;25.82
66582;SHT31;53438;48.898;2.308;2023-06-14T10:39:42;28.38;26.36
66582;SHT31;53438;48.898;2.308;2023-06-14T10:42:10;28.51;26.40
66582;SHT31;53438;48.898;2.308;2023-06-14T10:44:55;28.35;26.47
66582;SHT31;53438;48.898;2.308;2023-06-14T10:47:27;28.31;26.32
66582;SHT31;53438;48.898;2.308;2023-06-14T10:50:05;28.41;26.24
66582;SHT31;53438;48.898;2.308;2023-06-14T10:52:38;28.33;26.75
66582;SHT31;53438;48.898;2.308;2023-06-14T10:57:44;28.31;26.22
66582;SHT31;53438;48.898;2.308;2023-06-14T11:00:23;28.44;27.20
66582;SHT31;53438;48.898;2.308;2023-06-14T11:10:58;28.64;26.54
66582;SHT31;53438;48.898;2.308;2023-06-14T11:13:25;28.52;27.15
66582;SHT31;53438;48.898;2.308;2023-06-14T11:15:51;28.40;27.04
66582;SHT31;53438;48.898;2.308;2023-06-14T11:18:18;28.55;27.27
66582;SHT31;53438;48.898;2.308;2023-06-14T11:20:46;28.52;26.49
66582;SHT31;53438;48.898;2.308;2023-06-14T11:23:11;28.51;26.72
66582;SHT31;53438;48.898;2.308;2023-06-14T11:25:37;28.51;26.62
66582;SHT31;53438;48.898;2.308;2023-06-14T11:28:02;28.71;26.68
66582;SHT31;53438;48.898;2.308;2023-06-14T11:30:28;28.68;27.81
66582;SHT31;53438;48.898;2.308;2023-06-14T11:32:54;28.89;27.71
66582;SHT31;53438;48.898;2.308;2023-06-14T11:35:22;28.89;26.98
66582;SHT31;53438;48.898;2.308;2023-06-14T11:37:55;28.79;26.22
66582;SHT31;53438;48.898;2.308;2023-06-14T11:40:25;28.85;27.81
66582;SHT31;53438;48.898;2.308;2023-06-14T11:42:58;28.95;26.93
66582;SHT31;53438;48.898;2.308;2023-06-14T11:45:24;29.00;26.37
66582;SHT31;53438;48.898;2.308;2023-06-14T11:47:50;28.93;27.01
66582;SHT31;53438;48.898;2.308;2023-06-14T11:50:15;28.93;27.40
66582;SHT31;53438;48.898;2.308;2023-06-14T11:52:41;28.80;27.67
66582;SHT31;53438;48.898;2.308;2023-06-14T11:55:06;28.45;27.74
66582;SHT31;53438;48.898;2.308;2023-06-14T11:57:37;28.76;28.10
66582;SHT31;53438;48.898;2.308;2023-06-14T12:00:04;28.80;27.95
66582;SHT31;53438;48.898;2.308;2023-06-14T12:02:33;28.68;28.01
66582;SHT31;53438;48.898;2.308;2023-06-14T12:05:04;28.66;27.96
66582;SHT31;53438;48.898;2.308;2023-06-14T12:07:38;28.71;28.58
66582;SHT31;53438;48.898;2.308;2023-06-14T12:10:06;28.64;28.01
66582;SHT31;53438;48.898;2.308;2023-06-14T12:12:35;28.62;28.47
66582;SHT31;53438;48.898;2.308;2023-06-14T12:15:06;28.35;28.95
66582;SHT31;53438;48.898;2.308;2023-06-14T12:17:36;28.21;28.57
66582;SHT31;53438;48.898;2.308;2023-06-14T12:20:09;28.38;29.22
66582;SHT31;53438;48.898;2.308;2023-06-14T12:22:37;28.51;29.27
66582;SHT31;53438;48.898;2.308;2023-06-14T12:25:04;28.59;29.01
66582;SHT31;53438;48.898;2.308;2023-06-14T12:27:29;28.72;29.21
66582;SHT31;53438;48.898;2.308;2023-06-14T12:30:03;28.89;28.11
66582;SHT31;53438;48.898;2.308;2023-06-14T12:32:28;28.95;28.60
66582;SHT31;53438;48.898;2.308;2023-06-14T12:34:54;28.99;28.80
66582;SHT31;53438;48.898;2.308;2023-06-14T12:37:20;28.88;27.98
66582;SHT31;53438;48.898;2.308;2023-06-14T12:39:45;28.75;27.53
66582;SHT31;53438;48.898;2.308;2023-06-14T12:42:11;28.86;27.65
66582;SHT31;53438;48.898;2.308;2023-06-14T12:44:36;28.86;28.51
66582;SHT31;53438;48.898;2.308;2023-06-14T12:47:06;28.62;28.61
66582;SHT31;53438;48.898;2.308;2023-06-14T12:49:32;28.13;29.30
66582;SHT31;53438;48.898;2.308;2023-06-14T12:51:58;28.40;30.27
66582;SHT31;53438;48.898;2.308;2023-06-14T12:54:23;28.61;29.82
66582;SHT31;53438;48.898;2.308;2023-06-14T12:56:51;28.71;29.06
66582;SHT31;53438;48.898;2.308;2023-06-14T12:59:17;28.64;29.76
66582;SHT31;53438;48.898;2.308;2023-06-14T13:01:43;28.68;28.88
66582;SHT31;53438;48.898;2.308;2023-06-14T13:04:09;28.58;28.77
66582;SHT31;53438;48.898;2.308;2023-06-14T13:06:35;28.69;28.73
66582;SHT31;53438;48.898;2.308;2023-06-14T13:09:00;28.79;28.68
66582;SHT31;53438;48.898;2.308;2023-06-14T13:11:26;28.56;28.31
66582;SHT31;53438;48.898;2.308;2023-06-14T13:13:52;28.65;28.03
66582;SHT31;53438;48.898;2.308;2023-06-14T13:16:17;28.65;29.17
66582;SHT31;53438;48.898;2.308;2023-06-14T13:18:42;28.78;28.10
66582;SHT31;53438;48.898;2.308;2023-06-14T13:21:09;28.80;28.35
66582;SHT31;53438;48.898;2.308;2023-06-14T13:23:34;28.88;27.79
66582;SHT31;53438;48.898;2.308;2023-06-14T13:25:59;28.72;28.18
66582;SHT31;53438;48.898;2.308;2023-06-14T13:28:26;28.78;27.79
66582;SHT31;53438;48.898;2.308;2023-06-14T13:30:51;28.72;27.87
66582;SHT31;53438;48.898;2.308;2023-06-14T13:33:16;28.78;27.54
66582;SHT31;53438;48.898;2.308;2023-06-14T13:35:43;28.79;28.35
66582;SHT31;53438;48.898;2.308;2023-06-14T13:38:10;28.69;28.56
66582;SHT31;53438;48.898;2.308;2023-06-14T13:40:36;28.68;29.29
66582;SHT31;53438;48.898;2.308;2023-06-14T13:43:01;28.76;28.57
66582;SHT31;53438;48.898;2.308;2023-06-14T13:45:26;28.74;28.56
66582;SHT31;53438;48.898;2.308;2023-06-14T13:47:52;28.88;27.99
66582;SHT31;53438;48.898;2.308;2023-06-14T13:50:17;28.98;27.58
66582;SHT31;53438;48.898;2.308;2023-06-14T13:52:43;29.07;28.36
66582;SHT31;53438;48.898;2.308;2023-06-14T13:55:08;29.26;27.32
66582;SHT31;53438;48.898;2.308;2023-06-14T13:57:34;29.24;27.05
66582;SHT31;53438;48.898;2.308;2023-06-14T14:00:00;29.30;27.07
66582;SHT31;53438;48.898;2.308;2023-06-14T14:02:29;29.30;27.31
66582;SHT31;53438;48.898;2.308;2023-06-14T14:04:55;29.44;26.88
66582;SHT31;53438;48.898;2.308;2023-06-14T14:07:20;29.53;27.11
66582;SHT31;53438;48.898;2.308;2023-06-14T14:09:47;29.51;26.82
66582;SHT31;53438;48.898;2.308;2023-06-14T14:12:13;29.68;27.13
66582;SHT31;53438;48.898;2.308;2023-06-14T14:14:39;29.81;26.74
66582;SHT31;53438;48.898;2.308;2023-06-14T14:17:05;29.84;26.83
66582;SHT31;53438;48.898;2.308;2023-06-14T14:19:30;29.92;26.63
66582;SHT31;53438;48.898;2.308;2023-06-14T14:21:55;29.71;26.37
66582;SHT31;53438;48.898;2.308;2023-06-14T14:24:21;29.63;27.03
66582;SHT31;53438;48.898;2.308;2023-06-14T14:26:46;29.70;26.43
66582;SHT31;53438;48.898;2.308;2023-06-14T14:29:15;29.80;28.21
66582;SHT31;53438;48.898;2.308;2023-06-14T14:31:41;29.98;25.92
66582;SHT31;53438;48.898;2.308;2023-06-14T14:34:06;30.01;24.95
66582;SHT31;53438;48.898;2.308;2023-06-14T14:36:31;30.16;25.35
66582;SHT31;53438;48.898;2.308;2023-06-14T14:38:59;30.40;25.58
66582;SHT31;53438;48.898;2.308;2023-06-14T14:41:24;30.19;26.07
66582;SHT31;53438;48.898;2.308;2023-06-14T14:43:50;30.26;25.19
66582;SHT31;53438;48.898;2.308;2023-06-14T14:46:15;30.29;24.49
66582;SHT31;53438;48.898;2.308;2023-06-14T14:48:42;30.28;25.41
66582;SHT31;53438;48.898;2.308;2023-06-14T14:51:07;30.31;24.69
66582;SHT31;53438;48.898;2.308;2023-06-14T14:53:32;30.42;24.90
66582;SHT31;53438;48.898;2.308;2023-06-14T14:55:58;30.51;26.12
66582;SHT31;53438;48.898;2.308;2023-06-14T14:58:23;30.77;25.25
66582;SHT31;53438;48.898;2.308;2023-06-14T15:00:48;30.83;25.12
66582;SHT31;53438;48.898;2.308;2023-06-14T15:03:14;30.59;25.15
66582;SHT31;53438;48.898;2.308;2023-06-14T15:05:40;30.52;24.95
66582;SHT31;53438;48.898;2.308;2023-06-14T15:08:06;30.62;27.27
66582;SHT31;53438;48.898;2.308;2023-06-14T15:10:37;30.69;25.05
66582;SHT31;53438;48.898;2.308;2023-06-14T15:13:05;30.94;25.92
66582;SHT31;53438;48.898;2.308;2023-06-14T15:15:31;31.18;25.08
66582;SHT31;53438;48.898;2.308;2023-06-14T15:17:56;31.24;24.66
66582;SHT31;53438;48.898;2.308;2023-06-14T15:20:22;31.06;25.20
66582;SHT31;53438;48.898;2.308;2023-06-14T15:22:47;31.14;25.83
66582;SHT31;53438;48.898;2.308;2023-06-14T15:25:13;31.45;24.75
66582;SHT31;53438;48.898;2.308;2023-06-14T15:27:38;31.34;24.67
66582;SHT31;53438;48.898;2.308;2023-06-14T15:30:04;31.41;24.89
66582;SHT31;53438;48.898;2.308;2023-06-14T15:32:29;31.52;26.06
66582;SHT31;53438;48.898;2.308;2023-06-14T15:34:55;31.46;25.21
66582;SHT31;53438;48.898;2.308;2023-06-14T15:37:20;31.25;25.05
66582;SHT31;53438;48.898;2.308;2023-06-14T15:39:46;31.39;24.92
66582;SHT31;53438;48.898;2.308;2023-06-14T15:42:11;31.39;26.53
66582;SHT31;53438;48.898;2.308;2023-06-14T15:44:36;31.35;25.59
66582;SHT31;53438;48.898;2.308;2023-06-14T15:47:02;31.35;25.70
66582;SHT31;53438;48.898;2.308;2023-06-14T15:49:27;31.57;25.61
66582;SHT31;53438;48.898;2.308;2023-06-14T15:51:53;31.79;25.81
66582;SHT31;53438;48.898;2.308;2023-06-14T15:54:18;32.06;24.48
66582;SHT31;53438;48.898;2.308;2023-06-14T15:56:44;31.18;25.73
66582;SHT31;53438;48.898;2.308;2023-06-14T15:59:11;31.57;25.29
66582;SHT31;53438;48.898;2.308;2023-06-14T16:01:36;31.48;25.13
66582;SHT31;53438;48.898;2.308;2023-06-14T16:04:01;31.31;26.38
66582;SHT31;53438;48.898;2.308;2023-06-14T16:06:27;30.49;27.16
66582;SHT31;53438;48.898;2.308;2023-06-14T16:08:52;30.49;27.26
66582;SHT31;53438;48.898;2.308;2023-06-14T16:11:18;29.94;27.10
66582;SHT31;53438;48.898;2.308;2023-06-14T16:13:45;29.65;27.47
66582;SHT31;53438;48.898;2.308;2023-06-14T16:16:10;29.92;27.65
66582;SHT31;53438;48.898;2.308;2023-06-14T16:18:35;30.00;28.46
66582;SHT31;53438;48.898;2.308;2023-06-14T16:21:01;29.98;28.57
66582;SHT31;53438;48.898;2.308;2023-06-14T16:23:27;29.97;27.64
66582;SHT31;53438;48.898;2.308;2023-06-14T16:25:52;29.95;27.94
66582;SHT31;53438;48.898;2.308;2023-06-14T16:28:17;29.97;28.17
66582;SHT31;53438;48.898;2.308;2023-06-14T16:30:43;30.04;29.81
66582;SHT31;53438;48.898;2.308;2023-06-14T16:33:08;30.06;28.38
66582;SHT31;53438;48.898;2.308;2023-06-14T16:35:33;30.06;28.13
66582;SHT31;53438;48.898;2.308;2023-06-14T16:37:59;29.98;28.69
66582;SHT31;53438;48.898;2.308;2023-06-14T16:40:25;30.09;29.10
66582;SHT31;53438;48.898;2.308;2023-06-14T16:42:50;30.06;28.01
66582;SHT31;53438;48.898;2.308;2023-06-14T16:45:16;29.78;27.73
66582;SHT31;53438;48.898;2.308;2023-06-14T16:47:42;29.60;28.31
66582;SHT31;53438;48.898;2.308;2023-06-14T16:50:08;29.57;28.37
66582;SHT31;53438;48.898;2.308;2023-06-14T16:52:33;29.47;29.42
66582;SHT31;53438;48.898;2.308;2023-06-14T16:54:59;29.51;29.46
66582;SHT31;53438;48.898;2.308;2023-06-14T16:57:24;29.50;28.76
66582;SHT31;53438;48.898;2.308;2023-06-14T16:59:49;29.61;29.33
66582;SHT31;53438;48.898;2.308;2023-06-14T17:02:15;29.50;30.59
66582;SHT31;53438;48.898;2.308;2023-06-14T17:04:40;29.60;28.74
66582;SHT31;53438;48.898;2.308;2023-06-14T17:07:06;29.46;29.09
66582;SHT31;53438;48.898;2.308;2023-06-14T17:09:31;29.42;28.68
66582;SHT31;53438;48.898;2.308;2023-06-14T17:11:57;29.49;28.65
66582;SHT31;53438;48.898;2.308;2023-06-14T17:14:23;29.51;27.97
66582;SHT31;53438;48.898;2.308;2023-06-14T17:16:48;29.49;28.17
66582;SHT31;53438;48.898;2.308;2023-06-14T17:19:13;29.43;28.46
66582;SHT31;53438;48.898;2.308;2023-06-14T17:21:39;29.38;28.22
66582;SHT31;53438;48.898;2.308;2023-06-14T17:24:07;29.38;27.93
66582;SHT31;53438;48.898;2.308;2023-06-14T17:26:32;29.30;28.32
66582;SHT31;53438;48.898;2.308;2023-06-14T17:28:57;29.24;28.50
66582;SHT31;53438;48.898;2.308;2023-06-14T17:31:23;29.17;28.66
66582;SHT31;53438;48.898;2.308;2023-06-14T17:33:48;29.15;28.78
66582;SHT31;53438;48.898;2.308;2023-06-14T17:36:14;29.12;28.74
66582;SHT31;53438;48.898;2.308;2023-06-14T17:38:39;29.12;30.24
66582;SHT31;53438;48.898;2.308;2023-06-14T17:41:05;29.23;29.33
66582;SHT31;53438;48.898;2.308;2023-06-14T17:43:37;28.98;29.58
66582;SHT31;53438;48.898;2.308;2023-06-14T17:46:04;28.95;29.46
66582;SHT31;53438;48.898;2.308;2023-06-14T17:48:31;28.95;29.58
66582;SHT31;53438;48.898;2.308;2023-06-14T17:51:03;28.99;29.62
66582;SHT31;53438;48.898;2.308;2023-06-14T17:53:29;29.02;30.02
66582;SHT31;53438;48.898;2.308;2023-06-14T17:55:54;28.95;29.81
66582;SHT31;53438;48.898;2.308;2023-06-14T17:58:20;28.98;30.13
66582;SHT31;53438;48.898;2.308;2023-06-14T18:00:46;28.72;30.05
66582;SHT31;53438;48.898;2.308;2023-06-14T18:03:12;28.71;30.13
66582;SHT31;53438;48.898;2.308;2023-06-14T18:05:37;28.54;30.29
66582;SHT31;53438;48.898;2.308;2023-06-14T18:08:04;28.47;30.61
66582;SHT31;53438;48.898;2.308;2023-06-14T18:10:31;28.45;30.47
66582;SHT31;53438;48.898;2.308;2023-06-14T18:12:56;28.37;30.55
66582;SHT31;53438;48.898;2.308;2023-06-14T18:15:22;28.38;30.53
66582;SHT31;53438;48.898;2.308;2023-06-14T18:17:47;28.44;31.10
66582;SHT31;53438;48.898;2.308;2023-06-14T18:20:16;28.43;31.10
66582;SHT31;53438;48.898;2.308;2023-06-14T18:22:41;28.51;29.88
66582;SHT31;53438;48.898;2.308;2023-06-14T18:25:07;28.56;30.30
66582;SHT31;53438;48.898;2.308;2023-06-14T18:27:32;28.45;30.09
66582;SHT31;53438;48.898;2.308;2023-06-14T18:29:58;28.41;30.24
66582;SHT31;53438;48.898;2.308;2023-06-14T18:32:23;28.40;30.87
66582;SHT31;53438;48.898;2.308;2023-06-14T18:34:48;28.38;30.38
66582;SHT31;53438;48.898;2.308;2023-06-14T18:37:14;28.47;30.19
66582;SHT31;53438;48.898;2.308;2023-06-14T18:39:40;28.37;31.03